Gas City, Indiana
Current Conditions -  °F | °C
As of 5:15 AM on Friday 21 Nov 2014 (Local Time) from KMZZ Reporting Station
Clear Clear  
Wind Chill:   Ceiling: Unl
Heat Index: 10°   Visibility: 10mi
Dew Point:   Wind: 5mph
Humidity: 76%   Direction: 290°WNW
Pressure: 30.39"   Gusts: NA
Location:  40.49°N, 85.61°W
Report Text: KMZZ 211015Z AUTO 29004KT 10SM CLR M12/M16 A3039 RMK AO2 T11221156
Loading
Personal Weather Stations






























Interactive Weather Map New forecast layout! Learn more

10-Day Weather Forecast

Advertisements
Track Severe Weather on mobile